Time;durP1;ratioP1;P1;durP2;ratioP2;P2;SDS_P1;SDS_P2;PMS_P1;PMS_P2;Temp;Humidity;BMP_temperature;BMP_pressure;BME280_temperature;BME280_humidity;BME280_pressure;Samples;Min_cycle;Max_cycle;Signal;HPM_P1;HPM_P2
2021/07/15 00:00:17;;;;;;;9.93;7.87;;;14.60;99.90;;;;;;5087440;28;20451;-79
2021/07/15 00:02:45;;;;;;;10.50;8.43;;;14.60;99.90;;;;;;5104394;28;20467;-79
2021/07/15 00:05:14;;;;;;;10.73;7.87;;;14.40;99.90;;;;;;5089411;28;20811;-78
2021/07/15 00:07:41;;;;;;;8.57;7.77;;;14.40;99.90;;;;;;5084168;28;20459;-79
2021/07/15 00:10:18;;;;;;;8.63;7.53;;;14.30;99.90;;;;;;5077851;28;20441;-79
2021/07/15 00:12:45;;;;;;;9.27;8.47;;;14.30;99.90;;;;;;5079537;28;20436;-78
2021/07/15 00:15:13;;;;;;;9.17;8.20;;;14.30;99.90;;;;;;5081140;28;20463;-79
2021/07/15 00:17:40;;;;;;;10.07;9.07;;;14.30;99.90;;;;;;5089423;28;20472;-78
2021/07/15 00:20:13;;;;;;;11.10;8.97;;;14.30;99.90;;;;;;5087355;28;20467;-79
2021/07/15 00:22:41;;;;;;;8.70;7.90;;;14.30;99.90;;;;;;5090305;28;20469;-79
2021/07/15 00:25:10;;;;;;;9.80;8.90;;;14.30;99.90;;;;;;5096130;28;20505;-78
2021/07/15 00:27:38;;;;;;;10.60;9.70;;;14.40;99.90;;;;;;5097364;28;20457;-78
2021/07/15 00:30:06;;;;;;;9.60;8.63;;;14.40;99.90;;;;;;5076453;28;20482;-78
2021/07/15 00:32:34;;;;;;;10.13;9.17;;;14.40;99.90;;;;;;5079127;28;20484;-79
2021/07/15 00:35:01;;;;;;;9.70;8.90;;;14.40;99.90;;;;;;5075934;28;20968;-78
2021/07/15 00:37:30;;;;;;;8.77;7.97;;;14.40;99.90;;;;;;5085603;28;20482;-79
2021/07/15 00:39:57;;;;;;;9.30;8.43;;;14.40;99.90;;;;;;5084316;28;20455;-79
2021/07/15 00:42:24;;;;;;;9.13;8.37;;;14.40;99.90;;;;;;5077220;28;20492;-79
2021/07/15 00:44:51;;;;;;;9.23;8.43;;;14.30;99.90;;;;;;5085190;28;20505;-80
2021/07/15 00:47:18;;;;;;;9.80;8.27;;;14.30;99.90;;;;;;5083090;28;20537;-80
2021/07/15 00:49:45;;;;;;;8.63;7.80;;;14.20;99.90;;;;;;5084901;28;20444;-79
2021/07/15 00:52:13;;;;;;;9.53;8.73;;;14.20;99.90;;;;;;5087229;28;20443;-79
2021/07/15 00:54:44;;;;;;;10.30;9.30;;;14.30;99.90;;;;;;5093118;28;20435;-79
2021/07/15 00:57:11;;;;;;;10.17;9.37;;;14.30;99.90;;;;;;5095720;28;20797;-79
2021/07/15 00:59:40;;;;;;;9.70;8.90;;;14.50;99.90;;;;;;5083172;28;20943;-79
2021/07/15 01:02:10;;;;;;;10.00;9.20;;;14.60;99.90;;;;;;5081968;28;20495;-80
2021/07/15 01:04:37;;;;;;;11.47;9.67;;;14.60;99.90;;;;;;5087569;28;20444;-79
2021/07/15 01:07:04;;;;;;;10.20;9.40;;;14.50;99.90;;;;;;5103827;28;20458;-79
2021/07/15 01:09:32;;;;;;;8.93;8.23;;;14.50;99.90;;;;;;5096307;28;20455;-79
2021/07/15 01:12:15;;;;;;;9.20;8.50;;;14.50;99.90;;;;;;5077422;28;20486;-76
2021/07/15 01:14:56;;;;;;;9.80;9.00;;;14.50;99.90;;;;;;5077465;28;20526;-76
2021/07/15 01:17:26;;;;;;;9.30;8.50;;;14.50;99.90;;;;;;5083435;28;20464;-76
2021/07/15 01:20:11;;;;;;;9.73;9.00;;;14.50;99.90;;;;;;5082236;28;20558;-76
2021/07/15 01:22:42;;;;;;;9.40;8.43;;;14.50;99.90;;;;;;5088802;28;20956;-77
2021/07/15 01:25:40;;;;;;;9.40;8.30;;;14.40;99.90;;;;;;5089115;28;20498;-77
2021/07/15 01:28:17;;;;;;;8.50;7.67;;;14.50;99.90;;;;;;5072673;28;20470;-77
2021/07/15 01:30:48;;;;;;;8.70;7.80;;;14.60;99.90;;;;;;5088235;28;20506;-76
2021/07/15 01:33:18;;;;;;;8.53;7.83;;;14.80;99.90;;;;;;5089500;28;20448;-77
2021/07/15 01:35:50;;;;;;;7.93;7.23;;;14.90;99.90;;;;;;5078261;28;20501;-77
2021/07/15 01:38:19;;;;;;;8.63;7.70;;;15.00;99.90;;;;;;5083194;28;20448;-77
2021/07/15 01:40:48;;;;;;;7.10;6.40;;;15.10;99.90;;;;;;5090028;28;20535;-76
2021/07/15 01:43:27;;;;;;;7.30;6.60;;;15.30;99.90;;;;;;5089379;28;20535;-77
2021/07/15 01:45:55;;;;;;;7.03;6.43;;;15.30;99.90;;;;;;5081259;28;20547;-77
2021/07/15 01:48:22;;;;;;;7.97;6.73;;;15.20;99.90;;;;;;5072731;28;20523;-77
2021/07/15 01:50:50;;;;;;;6.70;6.13;;;15.10;99.90;;;;;;5079810;28;20488;-76
2021/07/15 01:53:17;;;;;;;6.97;6.47;;;15.00;99.90;;;;;;5076632;28;20445;-76
2021/07/15 01:55:45;;;;;;;7.27;6.60;;;15.00;99.90;;;;;;5084179;28;20532;-77
2021/07/15 01:58:12;;;;;;;7.50;6.90;;;15.00;99.90;;;;;;5079770;28;20803;-76
2021/07/15 02:00:39;;;;;;;6.33;5.83;;;14.90;99.90;;;;;;5078703;28;20444;-77
2021/07/15 02:03:09;;;;;;;6.60;6.10;;;14.80;99.90;;;;;;5084037;28;20465;-76
2021/07/15 02:05:37;;;;;;;7.50;6.20;;;14.70;99.90;;;;;;5083887;28;20448;-76
2021/07/15 02:08:05;;;;;;;7.00;6.30;;;14.60;99.90;;;;;;5077974;28;20461;-77
2021/07/15 02:10:34;;;;;;;7.23;6.73;;;14.70;99.90;;;;;;5086132;28;20535;-77
2021/07/15 02:13:01;;;;;;;6.93;6.23;;;14.70;99.90;;;;;;5077866;28;20449;-75
2021/07/15 02:15:29;;;;;;;6.73;6.23;;;14.80;99.90;;;;;;5081298;28;20550;-77
2021/07/15 02:18:00;;;;;;;7.43;6.93;;;14.90;99.90;;;;;;5084877;28;20525;-77
2021/07/15 02:20:30;;;;;;;6.87;6.37;;;15.00;99.90;;;;;;5086733;28;21015;-76
2021/07/15 02:22:59;;;;;;;6.73;6.13;;;15.00;99.90;;;;;;5094068;28;20460;-76
2021/07/15 02:25:29;;;;;;;7.10;6.20;;;15.10;99.90;;;;;;5086515;28;20495;-77
2021/07/15 02:27:57;;;;;;;7.67;7.07;;;15.10;99.90;;;;;;5078723;28;20456;-76
2021/07/15 02:30:24;;;;;;;6.77;6.13;;;15.10;99.90;;;;;;5078963;28;20479;-76
2021/07/15 02:32:56;;;;;;;6.80;6.13;;;15.10;99.90;;;;;;5075631;28;20476;-76
2021/07/15 02:35:25;;;;;;;6.63;5.47;;;15.10;99.90;;;;;;5074838;28;20443;-76
2021/07/15 02:37:58;;;;;;;6.50;6.03;;;15.10;99.90;;;;;;5078491;28;20459;-77
2021/07/15 02:40:25;;;;;;;5.80;5.30;;;15.00;99.90;;;;;;5081991;28;20520;-76
2021/07/15 02:42:52;;;;;;;6.63;5.93;;;15.00;99.90;;;;;;5081645;28;20516;-76
2021/07/15 02:45:20;;;;;;;6.13;5.50;;;15.00;99.90;;;;;;5082652;28;20444;-77
2021/07/15 02:47:49;;;;;;;5.90;5.50;;;15.00;99.90;;;;;;5091451;28;20537;-76
2021/07/15 02:50:19;;;;;;;6.40;5.90;;;15.00;99.90;;;;;;5082852;28;20523;-76
2021/07/15 02:52:48;;;;;;;6.50;6.00;;;15.00;99.90;;;;;;5075945;28;20475;-76
2021/07/15 02:55:16;;;;;;;6.27;5.70;;;14.90;99.90;;;;;;5084040;28;20468;-76
2021/07/15 02:57:53;;;;;;;11.10;5.90;;;14.90;99.90;;;;;;5079403;28;20447;-76
2021/07/15 03:00:20;;;;;;;6.20;5.73;;;14.90;99.90;;;;;;5080597;28;20522;-76
2021/07/15 03:02:54;;;;;;;5.30;4.90;;;15.00;99.90;;;;;;5079243;28;20452;-76
2021/07/15 03:05:25;;;;;;;6.20;5.60;;;15.00;99.30;;;;;;5085763;28;21274;-76
2021/07/15 03:07:57;;;;;;;5.83;5.33;;;15.00;99.40;;;;;;5077579;28;20448;-76
2021/07/15 03:10:27;;;;;;;5.47;5.07;;;15.00;99.10;;;;;;5084963;28;20452;-76
2021/07/15 03:12:55;;;;;;;6.33;4.90;;;14.90;99.20;;;;;;5082368;28;20434;-76
2021/07/15 03:15:23;;;;;;;6.20;5.70;;;15.00;99.00;;;;;;5085419;28;20487;-76
2021/07/15 03:17:51;;;;;;;6.63;5.50;;;15.00;99.90;;;;;;5089824;28;20447;-75
2021/07/15 03:20:22;;;;;;;6.10;5.50;;;15.00;98.70;;;;;;5081454;28;20538;-76
2021/07/15 03:22:55;;;;;;;6.47;5.77;;;15.10;98.70;;;;;;5074488;28;20549;-75
2021/07/15 03:25:23;;;;;;;4.70;4.30;;;15.10;98.90;;;;;;5079843;28;20442;-76
2021/07/15 03:27:53;;;;;;;5.00;4.60;;;15.20;97.80;;;;;;5074047;28;21072;-76
2021/07/15 03:30:22;;;;;;;5.83;4.80;;;15.20;97.40;;;;;;5083794;28;20828;-75
2021/07/15 03:32:50;;;;;;;5.10;4.70;;;15.40;97.00;;;;;;5082214;28;20509;-75
2021/07/15 03:35:18;;;;;;;5.57;4.97;;;15.40;95.50;;;;;;5088010;28;20488;-75
2021/07/15 03:37:47;;;;;;;5.27;4.83;;;15.40;96.20;;;;;;5088766;28;20476;-76
2021/07/15 03:40:16;;;;;;;4.80;4.40;;;15.40;95.90;;;;;;5098997;28;20457;-76
2021/07/15 03:42:45;;;;;;;5.00;4.67;;;15.40;95.60;;;;;;5095584;28;20500;-76
2021/07/15 03:45:16;;;;;;;4.47;3.80;;;15.40;95.60;;;;;;5101871;28;20475;-76
2021/07/15 03:47:43;;;;;;;4.63;4.33;;;15.30;95.60;;;;;;5093885;28;20433;-75
2021/07/15 03:50:12;;;;;;;4.40;4.10;;;15.40;95.10;;;;;;5077802;28;20493;-76
2021/07/15 03:52:39;;;;;;;4.80;4.40;;;15.40;94.90;;;;;;5090417;28;20470;-76
2021/07/15 03:55:07;;;;;;;4.77;4.37;;;15.30;95.50;;;;;;5094153;28;20879;-76
2021/07/15 03:57:35;;;;;;;4.33;3.93;;;15.20;95.50;;;;;;5099126;28;20528;-76
2021/07/15 04:00:03;;;;;;;5.10;4.70;;;15.20;95.80;;;;;;5084454;28;20982;-75
2021/07/15 04:02:34;;;;;;;4.00;3.70;;;15.10;95.60;;;;;;5077254;28;20491;-76
2021/07/15 04:05:02;;;;;;;4.93;4.53;;;15.10;96.10;;;;;;5078455;28;20519;-76
2021/07/15 04:07:31;;;;;;;4.73;3.60;;;15.10;96.40;;;;;;5079833;28;20460;-75
2021/07/15 04:09:59;;;;;;;3.80;3.50;;;15.10;96.30;;;;;;5089715;28;20495;-75
2021/07/15 04:12:27;;;;;;;3.87;3.57;;;15.20;95.70;;;;;;5085861;28;20444;-76
2021/07/15 04:15:08;;;;;;;3.60;3.40;;;15.30;95.30;;;;;;5084859;28;20448;-75
2021/07/15 04:17:42;;;;;;;3.77;3.57;;;15.30;94.90;;;;;;5082295;28;20471;-75
2021/07/15 04:20:12;;;;;;;4.40;4.00;;;15.30;94.90;;;;;;5076701;28;20503;-76
2021/07/15 04:22:42;;;;;;;5.93;3.30;;;15.30;94.20;;;;;;5078589;28;20473;-76
2021/07/15 04:25:12;;;;;;;4.50;3.30;;;15.50;94.00;;;;;;5086132;28;20455;-76
2021/07/15 04:27:42;;;;;;;3.80;2.83;;;15.50;93.10;;;;;;5061525;28;20456;-76
2021/07/15 04:30:10;;;;;;;3.40;3.10;;;15.50;92.70;;;;;;5073060;28;20449;-76
2021/07/15 04:32:40;;;;;;;3.23;2.93;;;15.50;92.60;;;;;;5082016;28;20695;-76
2021/07/15 04:35:09;;;;;;;3.20;2.90;;;15.50;93.50;;;;;;5059388;28;20445;-76
2021/07/15 04:37:37;;;;;;;3.17;2.90;;;15.60;92.40;;;;;;5082764;28;20482;-77
2021/07/15 04:40:07;;;;;;;2.97;2.70;;;15.70;91.80;;;;;;5081135;28;20455;-77
2021/07/15 04:42:34;;;;;;;4.07;2.20;;;15.90;91.40;;;;;;5086011;28;20448;-77
2021/07/15 04:45:02;;;;;;;2.50;2.30;;;16.60;89.60;;;;;;5087506;28;21083;-77
2021/07/15 04:47:31;;;;;;;2.40;2.20;;;17.00;86.40;;;;;;5086242;28;20482;-77
2021/07/15 04:49:59;;;;;;;2.20;2.00;;;17.20;85.20;;;;;;5076379;28;20993;-76
2021/07/15 04:52:30;;;;;;;3.30;2.03;;;17.20;84.70;;;;;;5086427;28;20455;-76
2021/07/15 04:54:58;;;;;;;2.53;2.43;;;17.20;84.10;;;;;;5081052;28;20473;-76
2021/07/15 04:57:25;;;;;;;3.87;3.23;;;16.90;84.50;;;;;;5089855;28;20539;-76
2021/07/15 04:59:52;;;;;;;2.20;2.00;;;16.80;85.00;;;;;;5078030;28;20488;-77
2021/07/15 05:02:22;;;;;;;2.40;2.20;;;16.70;84.70;;;;;;5080739;28;20469;-76
2021/07/15 05:04:49;;;;;;;4.77;1.90;;;16.70;85.50;;;;;;5087197;28;20469;-76
2021/07/15 05:07:17;;;;;;;2.63;1.80;;;16.60;85.30;;;;;;5100980;28;20452;-76
2021/07/15 05:09:44;;;;;;;3.40;1.90;;;16.60;85.90;;;;;;5078683;28;20465;-76
2021/07/15 05:12:12;;;;;;;1.93;1.83;;;16.60;85.80;;;;;;5087354;28;20478;-76
2021/07/15 05:14:41;;;;;;;1.73;1.63;;;16.60;85.50;;;;;;5078364;28;23072;-77
2021/07/15 05:17:09;;;;;;;2.13;2.00;;;16.60;84.80;;;;;;5100177;28;20472;-76
2021/07/15 05:19:36;;;;;;;2.00;1.80;;;16.20;85.80;;;;;;5083424;28;20457;-76
2021/07/15 05:22:03;;;;;;;2.47;2.23;;;16.30;86.50;;;;;;5079472;28;20469;-75
2021/07/15 05:24:32;;;;;;;2.47;2.20;;;16.10;87.30;;;;;;5074096;28;20465;-77
2021/07/15 05:27:00;;;;;;;2.97;2.30;;;16.10;87.80;;;;;;5080181;28;20508;-77
2021/07/15 05:29:27;;;;;;;6.53;2.13;;;15.80;88.80;;;;;;5078071;28;20490;-75
2021/07/15 05:31:54;;;;;;;2.63;2.30;;;16.00;89.30;;;;;;5075567;28;20493;-76
2021/07/15 05:34:21;;;;;;;2.93;2.03;;;16.20;87.80;;;;;;5079792;28;20444;-78
2021/07/15 05:36:48;;;;;;;2.83;2.20;;;16.40;87.00;;;;;;5095268;28;20447;-77
2021/07/15 05:39:15;;;;;;;2.60;1.67;;;16.40;87.20;;;;;;5088622;28;20445;-77
2021/07/15 05:41:43;;;;;;;3.97;2.10;;;16.60;86.30;;;;;;5078371;28;20441;-76
2021/07/15 05:44:10;;;;;;;1.97;1.87;;;16.60;85.40;;;;;;5078948;28;21024;-75
2021/07/15 05:46:37;;;;;;;3.90;1.90;;;16.70;84.60;;;;;;5094691;28;20544;-74
2021/07/15 05:49:04;;;;;;;2.80;1.60;;;16.80;84.30;;;;;;5087638;28;20484;-75
2021/07/15 05:51:31;;;;;;;2.27;1.33;;;17.00;84.00;;;;;;5094257;28;20472;-75
2021/07/15 05:53:58;;;;;;;2.93;1.47;;;17.20;82.90;;;;;;5096333;28;20807;-76
2021/07/15 05:56:25;;;;;;;2.83;1.30;;;17.40;82.10;;;;;;5093473;28;20955;-75
2021/07/15 05:58:53;;;;;;;2.90;1.27;;;17.40;82.10;;;;;;5091990;28;20491;-75
2021/07/15 06:01:20;;;;;;;1.27;1.10;;;17.60;80.60;;;;;;5080872;28;20476;-76
2021/07/15 06:03:47;;;;;;;1.10;0.97;;;17.80;79.90;;;;;;5089408;28;20549;-75
2021/07/15 06:06:14;;;;;;;2.50;1.30;;;17.80;78.90;;;;;;5090482;28;20533;-75
2021/07/15 06:08:41;;;;;;;3.23;0.90;;;18.10;78.70;;;;;;5086221;28;20444;-75
2021/07/15 06:11:08;;;;;;;2.03;0.80;;;18.20;77.50;;;;;;5079407;28;20452;-75
2021/07/15 06:13:35;;;;;;;2.00;1.03;;;18.40;76.90;;;;;;5080572;28;20864;-75
2021/07/15 06:16:03;;;;;;;2.63;0.90;;;18.60;76.10;;;;;;5089396;28;20573;-75
2021/07/15 06:18:30;;;;;;;0.40;0.40;;;18.60;75.20;;;;;;5086277;28;20468;-75
2021/07/15 06:20:57;;;;;;;1.20;0.70;;;18.60;74.80;;;;;;5086313;28;20814;-75
2021/07/15 06:23:25;;;;;;;1.80;0.80;;;18.50;74.30;;;;;;5082867;28;20908;-76
2021/07/15 06:25:52;;;;;;;2.53;0.87;;;18.40;74.30;;;;;;5089889;28;20484;-76
2021/07/15 06:28:19;;;;;;;1.30;1.20;;;18.40;73.90;;;;;;5081728;28;20560;-75
2021/07/15 06:30:45;;;;;;;1.70;0.60;;;18.40;73.50;;;;;;5078687;28;20463;-75
2021/07/15 06:33:14;;;;;;;6.77;3.80;;;18.40;74.20;;;;;;5081009;28;20460;-76
2021/07/15 06:35:41;;;;;;;4.97;3.23;;;18.40;73.90;;;;;;5085079;28;20867;-75
2021/07/15 06:38:09;;;;;;;1.50;1.33;;;18.30;73.80;;;;;;5090689;28;20481;-77
2021/07/15 06:40:36;;;;;;;2.07;1.17;;;18.30;73.30;;;;;;5088457;28;21001;-76
2021/07/15 06:43:03;;;;;;;2.00;0.77;;;18.60;74.50;;;;;;5093665;28;20449;-76
2021/07/15 06:45:30;;;;;;;6.10;3.00;;;18.80;72.40;;;;;;5076226;28;20608;-75
2021/07/15 06:47:57;;;;;;;4.80;3.03;;;19.00;72.30;;;;;;5084702;28;20831;-76
2021/07/15 06:50:25;;;;;;;0.73;0.60;;;19.00;72.20;;;;;;5088459;28;20528;-76
2021/07/15 06:52:52;;;;;;;1.10;0.90;;;19.10;72.40;;;;;;5087952;28;20530;-76
2021/07/15 06:55:19;;;;;;;1.27;0.87;;;19.40;70.70;;;;;;5080936;28;20543;-75
2021/07/15 06:57:47;;;;;;;0.90;0.73;;;19.60;70.30;;;;;;5085332;28;20480;-75
2021/07/15 07:00:16;;;;;;;2.20;0.73;;;19.70;69.50;;;;;;5077472;28;20445;-76
2021/07/15 07:02:45;;;;;;;1.17;0.90;;;19.90;69.10;;;;;;5084119;28;20578;-76
2021/07/15 07:05:14;;;;;;;1.23;0.80;;;20.20;68.40;;;;;;5085711;28;20464;-76
2021/07/15 07:07:43;;;;;;;2.60;1.80;;;20.30;67.70;;;;;;5092421;28;20451;-77
2021/07/15 07:10:11;;;;;;;2.07;0.80;;;20.40;67.40;;;;;;5088747;28;20447;-76
2021/07/15 07:12:39;;;;;;;2.50;1.03;;;20.50;67.60;;;;;;5088517;28;20544;-79
2021/07/15 07:15:12;;;;;;;4.83;2.40;;;20.90;67.00;;;;;;5095113;28;20806;-79
2021/07/15 07:17:39;;;;;;;2.30;0.80;;;20.90;66.00;;;;;;5089664;28;20498;-80
2021/07/15 07:20:09;;;;;;;1.00;0.83;;;21.10;65.90;;;;;;5093301;28;21089;-81
2021/07/15 07:22:37;;;;;;;0.97;0.70;;;21.30;64.90;;;;;;5101594;28;20474;-80
2021/07/15 07:25:07;;;;;;;0.80;0.67;;;21.10;64.80;;;;;;5092072;28;20487;-79
2021/07/15 07:27:34;;;;;;;1.00;0.70;;;20.90;64.90;;;;;;5092790;28;20485;-78
2021/07/15 07:30:05;;;;;;;6.25;1.75;;;20.40;64.90;;;;;;5094485;28;20427;-79
2021/07/15 07:32:32;;;;;;;0.80;0.80;;;20.30;66.00;;;;;;5093174;28;20299;-78
2021/07/15 07:34:59;;;;;;;1.60;1.50;;;20.30;65.50;;;;;;5094532;28;20444;-78
2021/07/15 07:37:28;;;;;;;1.27;0.70;;;20.10;65.80;;;;;;5090472;28;20475;-78
2021/07/15 07:39:55;;;;;;;0.80;0.63;;;19.90;65.90;;;;;;5097386;28;20452;-78
2021/07/15 07:42:24;;;;;;;1.17;0.70;;;19.90;65.10;;;;;;5092909;28;20455;-78
2021/07/15 07:44:51;;;;;;;2.07;1.00;;;20.00;65.90;;;;;;5090759;28;20478;-78
2021/07/15 07:47:18;;;;;;;2.70;0.90;;;19.90;65.90;;;;;;5093507;28;20928;-79
2021/07/15 07:49:45;;;;;;;1.13;0.60;;;19.70;65.50;;;;;;5088413;28;21017;-79
2021/07/15 07:52:12;;;;;;;1.33;0.60;;;19.80;65.50;;;;;;5085514;28;20262;-79
2021/07/15 07:54:39;;;;;;;0.90;0.60;;;20.00;65.30;;;;;;5092026;28;20472;-79
2021/07/15 07:57:06;;;;;;;0.90;0.80;;;20.10;65.10;;;;;;5095174;28;20847;-79
2021/07/15 07:59:34;;;;;;;6.40;1.00;;;20.00;64.60;;;;;;5089307;28;20472;-79
2021/07/15 08:02:03;;;;;;;0.70;0.50;;;19.60;65.00;;;;;;5096660;28;20452;-78
2021/07/15 08:04:30;;;;;;;1.20;0.50;;;19.70;65.20;;;;;;5088872;28;20448;-77
2021/07/15 08:06:58;;;;;;;1.33;0.60;;;19.80;65.50;;;;;;5083081;28;20220;-77
2021/07/15 08:09:27;;;;;;;0.95;0.80;;;19.80;64.80;;;;;;5090181;28;20444;-77
2021/07/15 08:11:55;;;;;;;1.23;0.60;;;20.20;64.80;;;;;;5086496;28;20210;-77
2021/07/15 08:14:22;;;;;;;4.27;0.60;;;20.40;64.00;;;;;;5090799;28;20455;-77
2021/07/15 08:16:51;;;;;;;2.30;0.80;;;20.50;64.30;;;;;;5090364;28;20466;-78
2021/07/15 08:19:20;;;;;;;1.10;0.47;;;20.70;64.10;;;;;;5089731;28;20525;-78
2021/07/15 08:21:47;;;;;;;1.37;0.53;;;20.90;63.70;;;;;;5096155;28;20463;-77
2021/07/15 08:24:14;;;;;;;1.33;0.90;;;21.00;63.40;;;;;;5093571;28;20455;-77
2021/07/15 08:26:40;;;;;;;1.10;0.70;;;20.90;63.70;;;;;;5094827;28;20452;-78
2021/07/15 08:29:07;;;;;;;3.23;0.93;;;21.10;63.80;;;;;;5085376;28;20986;-78
2021/07/15 08:31:34;;;;;;;1.63;0.90;;;21.00;63.50;;;;;;5090026;28;20513;-77
2021/07/15 08:34:02;;;;;;;2.00;1.13;;;21.00;63.40;;;;;;5087246;28;20527;-78
2021/07/15 08:36:31;;;;;;;1.13;0.67;;;21.20;63.20;;;;;;5087673;28;20468;-77
2021/07/15 08:38:58;;;;;;;0.83;0.50;;;20.90;63.40;;;;;;5089825;28;20754;-78
2021/07/15 08:41:26;;;;;;;3.73;0.70;;;20.50;63.80;;;;;;5086411;28;21037;-77
2021/07/15 08:43:54;;;;;;;1.77;0.70;;;20.60;64.00;;;;;;5088164;28;20459;-79
2021/07/15 08:46:22;;;;;;;1.03;0.40;;;20.20;64.30;;;;;;5088934;28;20500;-77
2021/07/15 08:48:50;;;;;;;0.40;0.40;;;20.50;64.50;;;;;;5085793;28;20792;-77
2021/07/15 08:51:19;;;;;;;0.50;0.50;;;20.80;63.90;;;;;;5083227;28;21004;-77
2021/07/15 08:53:46;;;;;;;1.63;0.30;;;21.20;62.70;;;;;;5090909;28;20456;-78
2021/07/15 08:58:59;;;;;;;0.83;0.50;;;21.10;61.80;;;;;;5093552;28;20457;-77
2021/07/15 09:01:26;;;;;;;0.60;0.50;;;21.40;62.30;;;;;;5093665;28;20454;-78
2021/07/15 09:03:53;;;;;;;0.40;0.30;;;21.40;62.40;;;;;;5089968;28;20501;-77
2021/07/15 09:06:22;;;;;;;0.70;0.30;;;21.60;62.10;;;;;;5090778;28;20539;-77
2021/07/15 09:08:51;;;;;;;3.77;0.50;;;21.90;62.10;;;;;;5088573;28;20501;-78
2021/07/15 09:11:18;;;;;;;1.33;0.50;;;21.70;61.80;;;;;;5091720;28;20456;-78
2021/07/15 09:13:45;;;;;;;0.47;0.43;;;22.00;61.50;;;;;;5087596;28;20872;-78
2021/07/15 09:16:13;;;;;;;0.83;0.30;;;22.10;61.40;;;;;;5088118;28;20517;-77
2021/07/15 09:18:56;;;;;;;0.47;0.30;;;21.50;60.90;;;;;;5093420;28;20976;-77
2021/07/15 09:21:27;;;;;;;1.33;0.50;;;21.60;61.30;;;;;;5088749;28;20590;-78
2021/07/15 09:23:54;;;;;;;0.70;0.50;;;21.40;61.40;;;;;;5091808;28;20527;-77
2021/07/15 09:26:22;;;;;;;0.73;0.40;;;21.40;61.80;;;;;;5089244;28;20524;-77
2021/07/15 09:28:49;;;;;;;0.40;0.33;;;21.60;61.60;;;;;;5088097;28;20451;-77
2021/07/15 09:31:21;;;;;;;0.40;0.30;;;21.60;61.20;;;;;;5088143;28;20519;-78
2021/07/15 09:33:49;;;;;;;1.47;0.50;;;20.90;61.60;;;;;;5093844;28;20484;-79
2021/07/15 09:36:19;;;;;;;1.47;0.40;;;21.30;62.30;;;;;;5090654;28;20436;-79
2021/07/15 09:38:48;;;;;;;0.60;0.50;;;21.50;62.40;;;;;;5087062;28;20441;-79
2021/07/15 09:41:20;;;;;;;0.50;0.40;;;21.50;62.40;;;;;;5088677;28;20450;-79
2021/07/15 09:43:48;;;;;;;2.53;0.53;;;21.60;62.30;;;;;;5092219;28;20777;-79
2021/07/15 09:46:22;;;;;;;1.07;0.70;;;21.50;61.70;;;;;;5090002;28;20997;-79
2021/07/15 09:48:50;;;;;;;2.00;0.50;;;21.50;62.60;;;;;;5093253;28;20483;-78
2021/07/15 09:51:18;;;;;;;1.37;0.60;;;21.80;62.00;;;;;;5085914;28;20445;-78
2021/07/15 09:53:46;;;;;;;0.40;0.30;;;21.90;61.60;;;;;;5089984;28;20483;-79
2021/07/15 09:56:17;;;;;;;1.13;0.50;;;21.80;61.80;;;;;;5095148;28;20443;-83
2021/07/15 09:58:45;;;;;;;0.60;0.40;;;21.50;61.90;;;;;;5095422;28;20534;-79
2021/07/15 10:01:15;;;;;;;1.10;0.40;;;21.70;61.70;;;;;;5085346;28;20452;-85
2021/07/15 10:03:46;;;;;;;0.50;0.40;;;22.00;61.70;;;;;;5098997;28;20512;-83
2021/07/15 10:06:16;;;;;;;0.40;0.30;;;21.60;61.40;;;;;;5097777;28;20468;-83
2021/07/15 10:08:46;;;;;;;0.63;0.30;;;21.70;62.00;;;;;;5100446;28;20458;-79
2021/07/15 10:11:20;;;;;;;0.60;0.40;;;21.60;61.90;;;;;;5084965;28;20433;-78
2021/07/15 10:13:48;;;;;;;0.97;0.60;;;21.10;62.00;;;;;;5096782;28;20448;-85
2021/07/15 10:16:15;;;;;;;1.43;0.40;;;21.30;62.40;;;;;;5097396;28;20859;-85
2021/07/15 10:18:44;;;;;;;0.93;0.43;;;21.30;61.80;;;;;;5106506;28;20473;-84
2021/07/15 10:21:15;;;;;;;0.80;0.53;;;20.70;62.00;;;;;;5101974;28;20502;-85
2021/07/15 10:23:47;;;;;;;0.40;0.30;;;20.70;63.00;;;;;;5101443;28;20451;-85
2021/07/15 10:26:17;;;;;;;0.50;0.50;;;20.90;62.90;;;;;;5102487;28;20491;-85
2021/07/15 10:28:47;;;;;;;0.70;0.50;;;21.00;62.40;;;;;;5106882;28;20460;-86
2021/07/15 10:31:16;;;;;;;1.10;0.60;;;20.80;62.40;;;;;;5099386;28;20460;-85
2021/07/15 10:33:45;;;;;;;0.50;0.40;;;21.00;62.60;;;;;;5094185;28;20444;-85
2021/07/15 10:36:14;;;;;;;0.70;0.40;;;21.10;62.00;;;;;;5081404;28;20466;-84
2021/07/15 10:38:46;;;;;;;0.50;0.40;;;21.40;61.80;;;;;;5098964;28;20465;-85
2021/07/15 10:41:14;;;;;;;0.40;0.40;;;21.00;62.10;;;;;;5102202;28;20452;-85
2021/07/15 10:43:42;;;;;;;0.40;0.40;;;20.90;61.80;;;;;;5102496;28;20521;-85
2021/07/15 10:46:11;;;;;;;0.50;0.43;;;20.60;60.80;;;;;;5102606;28;20516;-86
2021/07/15 10:48:41;;;;;;;0.80;0.50;;;20.70;61.30;;;;;;5107681;28;20497;-85
2021/07/15 10:51:10;;;;;;;0.60;0.47;;;20.80;61.70;;;;;;5083041;28;20450;-85
2021/07/15 10:53:42;;;;;;;0.90;0.80;;;21.10;61.30;;;;;;5102737;28;21044;-88
2021/07/15 10:56:09;;;;;;;0.43;0.40;;;21.10;61.60;;;;;;5105406;28;20488;-86
2021/07/15 10:58:44;;;;;;;0.60;0.60;;;21.50;60.70;;;;;;5107483;28;20797;-86
2021/07/15 11:01:13;;;;;;;0.73;0.60;;;21.40;61.40;;;;;;5093230;28;20556;-86
2021/07/15 11:03:41;;;;;;;0.60;0.40;;;21.90;61.30;;;;;;5110094;28;20482;-85
2021/07/15 11:06:09;;;;;;;1.77;0.60;;;22.20;60.70;;;;;;5110384;28;20463;-86
2021/07/15 11:09:10;;;;;;;0.50;0.40;;;22.40;61.40;;;;;;5103419;28;20451;-85
2021/07/15 11:11:42;;;;;;;0.60;0.50;;;22.60;61.10;;;;;;5111828;28;20546;-85
2021/07/15 11:14:35;;;;;;;1.00;0.40;;;22.30;60.70;;;;;;5109398;28;20466;-85
2021/07/15 11:17:24;;;;;;;2.00;0.60;;;22.50;60.30;;;;;;5099521;28;21096;-85
2021/07/15 11:20:04;;;;;;;1.07;0.60;;;22.40;60.60;;;;;;5078178;28;20452;-86
2021/07/15 11:22:49;;;;;;;0.80;0.50;;;22.10;60.70;;;;;;5096441;28;20476;-86
2021/07/15 11:25:18;;;;;;;0.50;0.30;;;22.20;59.90;;;;;;5077918;28;20543;-79
2021/07/15 11:27:48;;;;;;;0.50;0.50;;;21.80;59.90;;;;;;5096566;28;20443;-79
2021/07/15 11:30:27;;;;;;;0.50;0.40;;;21.40;59.60;;;;;;5100735;28;20514;-79
2021/07/15 11:33:18;;;;;;;0.90;0.50;;;21.30;60.00;;;;;;5093975;28;20444;-79
2021/07/15 11:35:51;;;;;;;1.37;0.50;;;21.60;60.20;;;;;;5093623;28;20446;-79
2021/07/15 11:38:24;;;;;;;1.33;0.60;;;22.20;60.00;;;;;;5099975;28;20471;-80
2021/07/15 11:40:52;;;;;;;0.93;0.50;;;22.00;58.80;;;;;;5101932;28;20440;-79
2021/07/15 11:43:21;;;;;;;1.30;0.40;;;22.00;59.80;;;;;;5082771;28;20436;-79
2021/07/15 11:46:12;;;;;;;0.90;0.50;;;21.80;59.70;;;;;;5098858;28;20467;-80
2021/07/15 11:48:52;;;;;;;0.70;0.50;;;22.40;59.90;;;;;;5092398;28;20432;-79
2021/07/15 11:51:34;;;;;;;0.90;0.50;;;22.70;59.70;;;;;;5089175;28;20455;-77
2021/07/15 11:54:19;;;;;;;0.60;0.30;;;22.80;59.70;;;;;;5094359;28;20194;-79
2021/07/15 11:56:47;;;;;;;0.87;0.70;;;22.80;59.00;;;;;;5091835;28;21150;-79
2021/07/15 11:59:33;;;;;;;0.40;0.30;;;22.10;59.80;;;;;;5092136;28;20452;-78
2021/07/15 12:02:20;;;;;;;0.50;0.40;;;22.40;59.70;;;;;;5096595;28;20464;-80
2021/07/15 12:05:10;;;;;;;1.37;0.40;;;23.10;59.40;;;;;;5097747;28;20558;-80
2021/07/15 12:07:39;;;;;;;0.97;0.40;;;23.40;58.70;;;;;;5099888;28;20448;-81
2021/07/15 12:10:08;;;;;;;1.37;0.50;;;23.40;58.80;;;;;;5083823;28;20458;-81
2021/07/15 12:12:40;;;;;;;0.90;0.43;;;23.70;58.80;;;;;;5106874;28;20491;-81
2021/07/15 12:15:13;;;;;;;0.80;0.50;;;23.90;58.60;;;;;;5103556;28;20509;-81
2021/07/15 12:17:43;;;;;;;1.33;0.57;;;24.00;58.30;;;;;;5099014;28;20469;-82
2021/07/15 12:20:12;;;;;;;1.70;0.60;;;23.90;57.60;;;;;;5098305;28;20447;-81
2021/07/15 12:22:48;;;;;;;0.70;0.63;;;23.80;58.20;;;;;;5074919;28;20467;-82
2021/07/15 12:25:20;;;;;;;1.20;0.80;;;23.70;58.00;;;;;;5098286;28;20438;-82
2021/07/15 12:27:50;;;;;;;0.70;0.53;;;23.40;59.20;;;;;;5099922;28;20512;-81
2021/07/15 12:30:22;;;;;;;0.90;0.70;;;23.20;58.50;;;;;;5094454;28;20444;-81
2021/07/15 12:33:00;;;;;;;1.27;0.80;;;23.10;58.90;;;;;;5078404;28;20497;-80
2021/07/15 12:44:30;;;;;;;2.83;1.27;;;23.60;58.90;;;;;;5106104;28;20506;-81
2021/07/15 12:53:57;;;;;;;0.80;0.77;;;23.00;58.30;;;;;;5090998;28;20450;-79
2021/07/15 13:29:29;;;;;;;1.10;0.90;;;22.10;59.30;;;;;;5096209;28;20447;-80
2021/07/15 13:35:30;;;;;;;1.00;0.70;;;21.90;59.60;;;;;;5107154;28;20447;-82
2021/07/15 13:47:22;;;;;;;1.03;0.70;;;22.60;59.60;;;;;;5105183;28;20521;-84
2021/07/15 13:49:53;;;;;;;1.10;1.00;;;22.80;60.10;;;;;;5101847;28;20451;-79
2021/07/15 13:52:46;;;;;;;0.90;0.67;;;22.60;59.50;;;;;;5090009;28;20504;-78
2021/07/15 13:55:15;;;;;;;1.80;0.50;;;22.60;59.90;;;;;;5091111;28;20460;-77
2021/07/15 13:57:43;;;;;;;1.30;0.60;;;22.50;59.60;;;;;;5096637;28;21214;-77
2021/07/15 14:00:13;;;;;;;2.77;0.67;;;22.00;60.50;;;;;;5095044;28;20483;-77
2021/07/15 14:02:42;;;;;;;2.30;0.73;;;22.20;60.70;;;;;;5081887;28;20444;-76